sensor_id;sensor_type;location;lat;lon;timestamp;temperature;humidity
69747;DHT22;57018;50.278;19.134;2022-12-18T10:19:39;-0.90;87.30
69747;DHT22;57018;50.278;19.134;2022-12-18T10:25:09;-0.20;87.30
69747;DHT22;57018;50.278;19.134;2022-12-18T10:27:45;-0.20;86.90
69747;DHT22;57018;50.278;19.134;2022-12-18T10:30:17;-0.10;87.00
69747;DHT22;57018;50.278;19.134;2022-12-18T10:32:47;0.00;86.20
69747;DHT22;57018;50.278;19.134;2022-12-18T10:35:20;0.00;87.20
69747;DHT22;57018;50.278;19.134;2022-12-18T10:38:20;0.30;87.30
69747;DHT22;57018;50.278;19.134;2022-12-18T10:40:54;0.20;86.40
69747;DHT22;57018;50.278;19.134;2022-12-18T10:43:26;0.30;86.20
69747;DHT22;57018;50.278;19.134;2022-12-18T10:46:14;0.20;85.20
69747;DHT22;57018;50.278;19.134;2022-12-18T10:48:56;0.40;83.70
69747;DHT22;57018;50.278;19.134;2022-12-18T10:51:29;0.20;83.70
69747;DHT22;57018;50.278;19.134;2022-12-18T10:54:02;0.20;84.10
69747;DHT22;57018;50.278;19.134;2022-12-18T10:56:35;0.20;83.80
69747;DHT22;57018;50.278;19.134;2022-12-18T10:59:08;0.30;83.70
69747;DHT22;57018;50.278;19.134;2022-12-18T11:01:50;0.20;83.40
69747;DHT22;57018;50.278;19.134;2022-12-18T11:04:22;0.20;82.20
69747;DHT22;57018;50.278;19.134;2022-12-18T11:06:59;0.30;82.80
69747;DHT22;57018;50.278;19.134;2022-12-18T11:09:32;0.20;81.90
69747;DHT22;57018;50.278;19.134;2022-12-18T11:12:04;0.20;83.50
69747;DHT22;57018;50.278;19.134;2022-12-18T11:14:45;0.30;83.60
69747;DHT22;57018;50.278;19.134;2022-12-18T11:17:25;0.20;82.70
69747;DHT22;57018;50.278;19.134;2022-12-18T11:19:58;0.20;83.10
69747;DHT22;57018;50.278;19.134;2022-12-18T11:22:30;0.30;83.40
69747;DHT22;57018;50.278;19.134;2022-12-18T11:25:03;0.20;82.10
69747;DHT22;57018;50.278;19.134;2022-12-18T11:27:34;0.30;83.10
69747;DHT22;57018;50.278;19.134;2022-12-18T11:30:20;0.00;79.30
69747;DHT22;57018;50.278;19.134;2022-12-18T11:32:54;0.00;80.20
69747;DHT22;57018;50.278;19.134;2022-12-18T11:35:42;0.10;83.10
69747;DHT22;57018;50.278;19.134;2022-12-18T11:38:19;0.20;82.10
69747;DHT22;57018;50.278;19.134;2022-12-18T11:40:59;0.20;81.30
69747;DHT22;57018;50.278;19.134;2022-12-18T11:43:33;0.10;81.30
69747;DHT22;57018;50.278;19.134;2022-12-18T11:46:13;0.30;83.10
69747;DHT22;57018;50.278;19.134;2022-12-18T11:48:49;0.40;81.50
69747;DHT22;57018;50.278;19.134;2022-12-18T11:51:32;0.20;80.40
69747;DHT22;57018;50.278;19.134;2022-12-18T11:54:14;0.10;79.60
69747;DHT22;57018;50.278;19.134;2022-12-18T11:56:48;0.50;82.40
69747;DHT22;57018;50.278;19.134;2022-12-18T11:59:26;0.50;80.80
69747;DHT22;57018;50.278;19.134;2022-12-18T12:02:17;0.20;79.70
69747;DHT22;57018;50.278;19.134;2022-12-18T12:05:08;0.40;81.10
69747;DHT22;57018;50.278;19.134;2022-12-18T12:07:47;0.00;78.20
69747;DHT22;57018;50.278;19.134;2022-12-18T12:10:34;0.10;79.70
69747;DHT22;57018;50.278;19.134;2022-12-18T12:13:10;0.30;81.40
69747;DHT22;57018;50.278;19.134;2022-12-18T12:15:49;0.40;82.20
69747;DHT22;57018;50.278;19.134;2022-12-18T12:18:31;0.50;81.50
69747;DHT22;57018;50.278;19.134;2022-12-18T12:21:09;0.60;82.10
69747;DHT22;57018;50.278;19.134;2022-12-18T12:23:51;0.70;81.60
69747;DHT22;57018;50.278;19.134;2022-12-18T12:26:33;0.60;80.80
69747;DHT22;57018;50.278;19.134;2022-12-18T12:29:27;0.40;79.80
69747;DHT22;57018;50.278;19.134;2022-12-18T12:32:02;0.20;78.60
69747;DHT22;57018;50.278;19.134;2022-12-18T12:34:36;0.00;80.60
69747;DHT22;57018;50.278;19.134;2022-12-18T12:37:23;0.00;79.80
69747;DHT22;57018;50.278;19.134;2022-12-18T12:39:56;-0.20;79.30
69747;DHT22;57018;50.278;19.134;2022-12-18T12:42:32;-0.20;80.80
69747;DHT22;57018;50.278;19.134;2022-12-18T12:45:26;-0.20;81.40
69747;DHT22;57018;50.278;19.134;2022-12-18T12:47:59;-0.30;81.30
69747;DHT22;57018;50.278;19.134;2022-12-18T12:50:34;-0.30;81.30
69747;DHT22;57018;50.278;19.134;2022-12-18T12:53:07;-0.50;80.80
69747;DHT22;57018;50.278;19.134;2022-12-18T12:55:40;-0.60;81.70
69747;DHT22;57018;50.278;19.134;2022-12-18T12:58:17;-0.50;81.50
69747;DHT22;57018;50.278;19.134;2022-12-18T13:00:55;-0.60;81.60
69747;DHT22;57018;50.278;19.134;2022-12-18T13:03:41;-0.70;81.20
69747;DHT22;57018;50.278;19.134;2022-12-18T13:06:15;-0.90;81.30
69747;DHT22;57018;50.278;19.134;2022-12-18T13:08:58;-0.90;81.60
69747;DHT22;57018;50.278;19.134;2022-12-18T13:11:36;-1.10;80.60
69747;DHT22;57018;50.278;19.134;2022-12-18T13:14:30;-1.20;82.20
69747;DHT22;57018;50.278;19.134;2022-12-18T13:17:29;-1.40;81.10
69747;DHT22;57018;50.278;19.134;2022-12-18T13:20:11;-1.30;82.20
69747;DHT22;57018;50.278;19.134;2022-12-18T13:22:44;-1.20;83.20
69747;DHT22;57018;50.278;19.134;2022-12-18T13:25:33;-1.20;82.80
69747;DHT22;57018;50.278;19.134;2022-12-18T13:28:10;-1.20;82.30
69747;DHT22;57018;50.278;19.134;2022-12-18T13:30:53;-1.30;83.00
69747;DHT22;57018;50.278;19.134;2022-12-18T13:33:49;-1.50;81.50
69747;DHT22;57018;50.278;19.134;2022-12-18T13:36:31;-1.70;81.50
69747;DHT22;57018;50.278;19.134;2022-12-18T13:39:33;-1.70;82.60
69747;DHT22;57018;50.278;19.134;2022-12-18T13:42:44;-1.60;83.90
69747;DHT22;57018;50.278;19.134;2022-12-18T13:45:44;-1.90;82.30
69747;DHT22;57018;50.278;19.134;2022-12-18T13:48:24;-1.90;82.20
69747;DHT22;57018;50.278;19.134;2022-12-18T13:51:06;-1.90;82.80
69747;DHT22;57018;50.278;19.134;2022-12-18T13:53:45;-2.10;83.40
69747;DHT22;57018;50.278;19.134;2022-12-18T13:56:21;-2.10;83.50
69747;DHT22;57018;50.278;19.134;2022-12-18T14:01:50;-2.20;83.50
69747;DHT22;57018;50.278;19.134;2022-12-18T14:04:26;-2.30;83.30
69747;DHT22;57018;50.278;19.134;2022-12-18T14:06:58;-2.40;84.40
69747;DHT22;57018;50.278;19.134;2022-12-18T14:09:34;-2.40;84.20
69747;DHT22;57018;50.278;19.134;2022-12-18T14:12:05;-2.40;84.60
69747;DHT22;57018;50.278;19.134;2022-12-18T14:14:54;-2.40;84.80
69747;DHT22;57018;50.278;19.134;2022-12-18T14:17:24;-2.50;84.60
69747;DHT22;57018;50.278;19.134;2022-12-18T14:19:54;-2.60;84.80
69747;DHT22;57018;50.278;19.134;2022-12-18T14:22:26;-2.70;85.00
69747;DHT22;57018;50.278;19.134;2022-12-18T14:25:16;-2.70;85.70
69747;DHT22;57018;50.278;19.134;2022-12-18T14:27:50;-2.80;85.80
69747;DHT22;57018;50.278;19.134;2022-12-18T14:30:31;-2.90;86.40
69747;DHT22;57018;50.278;19.134;2022-12-18T14:33:05;-2.90;86.00
69747;DHT22;57018;50.278;19.134;2022-12-18T14:35:37;-2.90;86.50
69747;DHT22;57018;50.278;19.134;2022-12-18T14:38:23;-3.00;86.80
69747;DHT22;57018;50.278;19.134;2022-12-18T14:41:06;-3.00;86.90
69747;DHT22;57018;50.278;19.134;2022-12-18T14:43:37;-3.10;86.70
69747;DHT22;57018;50.278;19.134;2022-12-18T14:46:28;-3.10;86.90
69747;DHT22;57018;50.278;19.134;2022-12-18T14:48:59;-3.30;87.30
69747;DHT22;57018;50.278;19.134;2022-12-18T14:51:31;-3.40;88.30
69747;DHT22;57018;50.278;19.134;2022-12-18T14:54:04;-3.40;87.80
69747;DHT22;57018;50.278;19.134;2022-12-18T14:56:42;-3.40;87.60
69747;DHT22;57018;50.278;19.134;2022-12-18T14:59:17;-3.40;87.90
69747;DHT22;57018;50.278;19.134;2022-12-18T15:01:58;-3.40;87.60
69747;DHT22;57018;50.278;19.134;2022-12-18T15:04:31;-3.50;88.10
69747;DHT22;57018;50.278;19.134;2022-12-18T15:07:15;-3.50;88.20
69747;DHT22;57018;50.278;19.134;2022-12-18T15:12:48;-3.80;89.40
69747;DHT22;57018;50.278;19.134;2022-12-18T15:15:48;-3.80;89.80
69747;DHT22;57018;50.278;19.134;2022-12-18T15:18:20;-3.90;90.10
69747;DHT22;57018;50.278;19.134;2022-12-18T15:20:53;-4.00;90.30
69747;DHT22;57018;50.278;19.134;2022-12-18T15:23:27;-4.00;90.30
69747;DHT22;57018;50.278;19.134;2022-12-18T15:26:00;-4.00;90.50
69747;DHT22;57018;50.278;19.134;2022-12-18T15:28:33;-4.00;90.30
69747;DHT22;57018;50.278;19.134;2022-12-18T15:31:19;-3.90;90.00
69747;DHT22;57018;50.278;19.134;2022-12-18T15:34:18;-4.00;90.10
69747;DHT22;57018;50.278;19.134;2022-12-18T15:36:51;-4.10;90.50
69747;DHT22;57018;50.278;19.134;2022-12-18T15:39:21;-4.20;91.40
69747;DHT22;57018;50.278;19.134;2022-12-18T15:41:53;-4.30;91.40
69747;DHT22;57018;50.278;19.134;2022-12-18T15:44:40;-4.30;92.20
69747;DHT22;57018;50.278;19.134;2022-12-18T15:47:13;-4.30;91.50
69747;DHT22;57018;50.278;19.134;2022-12-18T15:49:43;-4.30;91.80
69747;DHT22;57018;50.278;19.134;2022-12-18T15:52:14;-4.40;91.80
69747;DHT22;57018;50.278;19.134;2022-12-18T15:54:54;-4.40;92.50
69747;DHT22;57018;50.278;19.134;2022-12-18T15:57:42;-4.40;92.30
69747;DHT22;57018;50.278;19.134;2022-12-18T16:00:15;-4.50;92.40
69747;DHT22;57018;50.278;19.134;2022-12-18T16:02:43;-4.60;92.40
69747;DHT22;57018;50.278;19.134;2022-12-18T16:05:16;-4.70;93.10
69747;DHT22;57018;50.278;19.134;2022-12-18T16:07:47;-4.70;92.80
69747;DHT22;57018;50.278;19.134;2022-12-18T16:10:17;-4.80;93.30
69747;DHT22;57018;50.278;19.134;2022-12-18T16:12:48;-4.80;93.10
69747;DHT22;57018;50.278;19.134;2022-12-18T16:15:18;-4.70;93.10
69747;DHT22;57018;50.278;19.134;2022-12-18T16:17:49;-4.70;93.00
69747;DHT22;57018;50.278;19.134;2022-12-18T16:20:22;-4.70;92.60
69747;DHT22;57018;50.278;19.134;2022-12-18T16:22:51;-4.80;92.20
69747;DHT22;57018;50.278;19.134;2022-12-18T16:25:26;-4.90;92.90
69747;DHT22;57018;50.278;19.134;2022-12-18T16:27:57;-4.80;92.80
69747;DHT22;57018;50.278;19.134;2022-12-18T16:30:28;-4.80;93.10
69747;DHT22;57018;50.278;19.134;2022-12-18T16:32:59;-4.80;92.10
69747;DHT22;57018;50.278;19.134;2022-12-18T16:35:29;-4.90;92.50
69747;DHT22;57018;50.278;19.134;2022-12-18T16:38:01;-4.80;92.30
69747;DHT22;57018;50.278;19.134;2022-12-18T16:40:30;-4.80;92.00
69747;DHT22;57018;50.278;19.134;2022-12-18T16:43:01;-4.80;91.40
69747;DHT22;57018;50.278;19.134;2022-12-18T16:45:31;-4.90;91.40
69747;DHT22;57018;50.278;19.134;2022-12-18T16:48:01;-5.00;91.50
69747;DHT22;57018;50.278;19.134;2022-12-18T16:50:31;-4.90;91.80
69747;DHT22;57018;50.278;19.134;2022-12-18T16:53:01;-5.00;91.10
69747;DHT22;57018;50.278;19.134;2022-12-18T16:55:31;-5.00;91.60
69747;DHT22;57018;50.278;19.134;2022-12-18T16:58:01;-5.00;91.40
69747;DHT22;57018;50.278;19.134;2022-12-18T17:00:31;-5.00;91.90
69747;DHT22;57018;50.278;19.134;2022-12-18T17:02:59;-5.10;91.00
69747;DHT22;57018;50.278;19.134;2022-12-18T17:05:30;-5.10;91.70
69747;DHT22;57018;50.278;19.134;2022-12-18T17:08:03;-5.00;92.20
69747;DHT22;57018;50.278;19.134;2022-12-18T17:10:35;-5.00;91.70
69747;DHT22;57018;50.278;19.134;2022-12-18T17:13:05;-5.10;91.30
69747;DHT22;57018;50.278;19.134;2022-12-18T17:15:37;-5.30;91.30
69747;DHT22;57018;50.278;19.134;2022-12-18T17:18:07;-5.30;91.70
69747;DHT22;57018;50.278;19.134;2022-12-18T17:20:37;-5.20;91.60
69747;DHT22;57018;50.278;19.134;2022-12-18T17:23:06;-5.30;91.30
69747;DHT22;57018;50.278;19.134;2022-12-18T17:25:40;-5.20;91.00
69747;DHT22;57018;50.278;19.134;2022-12-18T17:28:09;-5.30;90.80
69747;DHT22;57018;50.278;19.134;2022-12-18T17:30:45;-5.30;90.40
69747;DHT22;57018;50.278;19.134;2022-12-18T17:33:16;-5.40;90.80
69747;DHT22;57018;50.278;19.134;2022-12-18T17:35:47;-5.50;90.80
69747;DHT22;57018;50.278;19.134;2022-12-18T17:38:18;-5.70;90.70
69747;DHT22;57018;50.278;19.134;2022-12-18T17:40:53;-5.50;90.60
69747;DHT22;57018;50.278;19.134;2022-12-18T17:43:34;-5.60;90.30
69747;DHT22;57018;50.278;19.134;2022-12-18T17:46:09;-5.60;89.70
69747;DHT22;57018;50.278;19.134;2022-12-18T17:51:36;-5.80;90.50
69747;DHT22;57018;50.278;19.134;2022-12-18T17:54:13;-5.80;89.90
69747;DHT22;57018;50.278;19.134;2022-12-18T18:03:46;-5.80;89.10
69747;DHT22;57018;50.278;19.134;2022-12-18T18:06:16;-5.70;89.20
69747;DHT22;57018;50.278;19.134;2022-12-18T18:08:50;-5.90;88.10
69747;DHT22;57018;50.278;19.134;2022-12-18T18:11:24;-5.90;88.60
69747;DHT22;57018;50.278;19.134;2022-12-18T18:14:16;-5.90;88.10
69747;DHT22;57018;50.278;19.134;2022-12-18T18:16:48;-5.90;88.80
69747;DHT22;57018;50.278;19.134;2022-12-18T18:33:33;-6.00;88.30
69747;DHT22;57018;50.278;19.134;2022-12-18T18:55:50;-5.90;86.80
69747;DHT22;57018;50.278;19.134;2022-12-18T19:18:04;-6.40;86.30
69747;DHT22;57018;50.278;19.134;2022-12-18T19:20:44;-6.50;86.10
69747;DHT22;57018;50.278;19.134;2022-12-18T19:23:25;-6.50;86.20
69747;DHT22;57018;50.278;19.134;2022-12-18T19:25:59;-6.60;86.30
69747;DHT22;57018;50.278;19.134;2022-12-18T19:28:29;-6.50;86.40
69747;DHT22;57018;50.278;19.134;2022-12-18T19:31:07;-6.50;86.50
69747;DHT22;57018;50.278;19.134;2022-12-18T19:33:39;-6.50;85.90
69747;DHT22;57018;50.278;19.134;2022-12-18T19:39:10;-6.60;85.40
69747;DHT22;57018;50.278;19.134;2022-12-18T19:41:48;-6.60;85.40
69747;DHT22;57018;50.278;19.134;2022-12-18T19:44:24;-6.70;85.80
69747;DHT22;57018;50.278;19.134;2022-12-18T19:52:29;-6.60;86.10
69747;DHT22;57018;50.278;19.134;2022-12-18T19:54:58;-6.50;85.60
69747;DHT22;57018;50.278;19.134;2022-12-18T20:02:58;-6.60;84.90
69747;DHT22;57018;50.278;19.134;2022-12-18T20:05:32;-6.70;85.00
69747;DHT22;57018;50.278;19.134;2022-12-18T20:08:02;-6.90;85.20
69747;DHT22;57018;50.278;19.134;2022-12-18T20:16:05;-6.70;85.80
69747;DHT22;57018;50.278;19.134;2022-12-18T20:18:35;-6.90;86.50
69747;DHT22;57018;50.278;19.134;2022-12-18T20:21:05;-6.90;86.60
69747;DHT22;57018;50.278;19.134;2022-12-18T20:23:35;-6.90;87.00
69747;DHT22;57018;50.278;19.134;2022-12-18T20:31:09;-6.80;85.50
69747;DHT22;57018;50.278;19.134;2022-12-18T20:33:42;-6.70;86.20
69747;DHT22;57018;50.278;19.134;2022-12-18T20:36:14;-6.70;85.40
69747;DHT22;57018;50.278;19.134;2022-12-18T20:38:48;-6.60;85.10
69747;DHT22;57018;50.278;19.134;2022-12-18T20:41:19;-6.70;85.10
69747;DHT22;57018;50.278;19.134;2022-12-18T20:43:56;-6.60;85.30
69747;DHT22;57018;50.278;19.134;2022-12-18T20:46:27;-6.50;84.70
69747;DHT22;57018;50.278;19.134;2022-12-18T20:49:01;-6.50;84.60
69747;DHT22;57018;50.278;19.134;2022-12-18T20:51:30;-6.50;83.90
69747;DHT22;57018;50.278;19.134;2022-12-18T20:53:59;-6.70;83.50
69747;DHT22;57018;50.278;19.134;2022-12-18T20:59:03;-6.60;83.60
69747;DHT22;57018;50.278;19.134;2022-12-18T21:01:34;-6.70;83.10
69747;DHT22;57018;50.278;19.134;2022-12-18T21:06:33;-6.50;83.70
69747;DHT22;57018;50.278;19.134;2022-12-18T21:09:06;-6.50;83.70
69747;DHT22;57018;50.278;19.134;2022-12-18T21:11:35;-6.60;82.60
69747;DHT22;57018;50.278;19.134;2022-12-18T21:14:26;-6.70;83.20
69747;DHT22;57018;50.278;19.134;2022-12-18T21:16:56;-6.70;83.20
69747;DHT22;57018;50.278;19.134;2022-12-18T23:13:32;-7.00;83.80
69747;DHT22;57018;50.278;19.134;2022-12-18T23:16:04;-7.10;83.70
69747;DHT22;57018;50.278;19.134;2022-12-18T23:39:48;-6.80;85.20
69747;DHT22;57018;50.278;19.134;2022-12-18T23:42:18;-6.70;85.30
69747;DHT22;57018;50.278;19.134;2022-12-18T23:44:48;-6.70;84.00
69747;DHT22;57018;50.278;19.134;2022-12-18T23:47:19;-6.80;83.20
